createdAt,value
2022-08-27T00:04:57.402Z,55.12
2022-08-27T00:10:01.306Z,55.41
2022-08-27T00:15:08.814Z,54.67
2022-08-27T00:20:16.218Z,55.09
2022-08-27T00:25:21.006Z,55.56
2022-08-27T00:30:26.258Z,55.46
2022-08-27T00:35:30.424Z,55.92
2022-08-27T00:40:34.426Z,56.19
2022-08-27T00:45:42.747Z,56.31
2022-08-27T00:50:50.601Z,56.60
2022-08-27T00:55:58.493Z,56.83
2022-08-27T01:01:04.475Z,57.27
2022-08-27T01:06:16.055Z,56.83
2022-08-27T01:11:20.295Z,57.05
2022-08-27T01:16:29.837Z,56.87
2022-08-27T01:21:42.860Z,57.30
2022-08-27T01:26:48.055Z,57.18
2022-08-27T01:31:51.579Z,57.06
2022-08-27T01:36:57.328Z,57.09
2022-08-27T01:42:08.503Z,57.55
2022-08-27T01:47:12.243Z,58.35
2022-08-27T01:52:19.204Z,58.39
2022-08-27T01:57:26.023Z,58.53
2022-08-27T02:02:30.275Z,58.40
2022-08-27T02:07:33.856Z,58.97
2022-08-27T02:12:39.021Z,59.00
2022-08-27T02:17:42.810Z,58.86
2022-08-27T02:22:46.374Z,58.57
2022-08-27T02:27:53.330Z,58.71
2022-08-27T02:32:56.771Z,58.63
2022-08-27T02:38:00.728Z,59.24
2022-08-27T02:43:05.882Z,59.20
2022-08-27T02:48:10.114Z,58.79
2022-08-27T02:53:14.389Z,58.56
2022-08-27T02:58:19.211Z,58.87
2022-08-27T03:03:22.641Z,58.45
2022-08-27T03:08:27.416Z,58.14
2022-08-27T03:13:37.569Z,57.96
2022-08-27T03:18:41.862Z,58.16
2022-08-27T03:23:45.418Z,57.27
2022-08-27T03:28:50.520Z,56.42
2022-08-27T03:33:56.511Z,55.98
2022-08-27T03:39:00.980Z,56.09
2022-08-27T03:44:06.126Z,55.33
2022-08-27T03:49:10.188Z,55.79
2022-08-27T03:54:16.944Z,55.01
2022-08-27T03:59:21.932Z,54.46
2022-08-27T04:04:25.401Z,53.88
2022-08-27T04:09:29.991Z,47.18
2022-08-27T04:14:35.208Z,40.03
2022-08-27T04:19:39.336Z,35.64
2022-08-27T04:24:43.122Z,32.17
2022-08-27T04:29:48.742Z,30.08
2022-08-27T04:34:55.756Z,27.55
2022-08-27T04:39:59.397Z,26.27
2022-08-27T04:45:05.377Z,24.69
2022-08-27T04:50:09.907Z,23.10
2022-08-27T04:55:13.502Z,21.56
2022-08-27T05:00:18.906Z,19.75
2022-08-27T05:05:23.978Z,19.59
2022-08-27T05:10:27.587Z,18.98
2022-08-27T05:15:32.943Z,18.08
2022-08-27T05:20:44.208Z,16.29
2022-08-27T05:25:50.040Z,16.16
2022-08-27T05:30:57.757Z,15.38
2022-08-27T05:36:02.112Z,14.97
2022-08-27T05:41:09.124Z,14.21
2022-08-27T05:46:16.919Z,13.93
2022-08-27T05:51:26.135Z,14.08
2022-08-27T05:56:32.005Z,14.52
2022-08-27T06:01:38.892Z,13.86
2022-08-27T06:06:44.373Z,13.23
2022-08-27T06:11:48.878Z,12.98
2022-08-27T06:16:54.209Z,12.56
2022-08-27T06:22:00.065Z,11.08
2022-08-27T06:27:05.043Z,11.93
2022-08-27T06:32:10.527Z,10.95
2022-08-27T06:37:14.488Z,9.99
2022-08-27T06:42:18.467Z,9.94
2022-08-27T06:47:23.592Z,10.35
2022-08-27T06:52:27.460Z,10.26
2022-08-27T06:57:31.127Z,9.09
2022-08-27T07:02:36.557Z,9.68
2022-08-27T07:07:46.717Z,9.79
2022-08-27T07:12:52.781Z,9.56
2022-08-27T07:17:57.697Z,7.76
2022-08-27T07:23:01.321Z,7.87
2022-08-27T07:28:05.331Z,7.40
2022-08-27T07:33:10.189Z,8.01
2022-08-27T07:38:14.511Z,7.81
2022-08-27T07:43:35.617Z,8.61
2022-08-27T07:48:40.911Z,8.14
2022-08-27T07:53:46.379Z,7.97
2022-08-27T07:58:50.297Z,8.96
2022-08-27T08:03:55.887Z,10.00
2022-08-27T08:09:01.216Z,9.46
2022-08-27T08:14:05.818Z,9.53
2022-08-27T08:19:11.138Z,10.14
2022-08-27T08:24:14.788Z,11.52
2022-08-27T08:29:18.844Z,11.88
2022-08-27T08:34:23.846Z,12.35
2022-08-27T08:39:28.023Z,13.30
2022-08-27T08:44:36.089Z,13.50
2022-08-27T08:49:48.254Z,14.64
2022-08-27T08:54:53.166Z,14.66
2022-08-27T09:00:03.886Z,14.79
2022-08-27T09:05:11.593Z,14.73
2022-08-27T09:10:24.528Z,14.97
2022-08-27T09:15:31.933Z,14.98
2022-08-27T09:20:37.805Z,15.63
2022-08-27T09:25:43.614Z,15.26
2022-08-27T09:30:47.386Z,15.20
2022-08-27T09:35:53.354Z,15.93
2022-08-27T09:41:01.752Z,16.12
2022-08-27T09:46:08.623Z,15.12
2022-08-27T09:51:16.185Z,15.70
2022-08-27T09:56:30.811Z,15.82
2022-08-27T10:01:38.936Z,16.72
2022-08-27T10:06:49.823Z,15.96
2022-08-27T10:12:00.962Z,16.68
2022-08-27T10:17:17.060Z,16.62
2022-08-27T10:22:34.058Z,17.20
2022-08-27T10:27:50.295Z,17.18
2022-08-27T10:33:03.861Z,17.11
2022-08-27T10:38:16.512Z,17.22
2022-08-27T10:43:39.175Z,17.37
2022-08-27T10:48:48.818Z,17.28
2022-08-27T10:54:02.638Z,17.32
2022-08-27T10:59:19.368Z,17.06
2022-08-27T11:04:25.845Z,17.52
2022-08-27T11:09:38.531Z,17.50
2022-08-27T11:14:49.637Z,17.20
2022-08-27T11:19:58.587Z,17.07
2022-08-27T11:25:12.230Z,17.29
2022-08-27T11:30:25.547Z,16.80
2022-08-27T11:35:41.813Z,17.32
2022-08-27T11:41:08.044Z,16.47
2022-08-27T11:46:11.741Z,16.16
2022-08-27T11:51:28.690Z,16.58
2022-08-27T11:56:41.661Z,16.59
2022-08-27T12:01:45.433Z,16.79
2022-08-27T12:06:55.471Z,16.74
2022-08-27T12:12:09.775Z,16.94
2022-08-27T12:17:25.244Z,17.23
2022-08-27T12:23:14.800Z,17.90
2022-08-27T12:28:26.667Z,17.58
2022-08-27T12:33:35.229Z,17.09
2022-08-27T12:38:50.537Z,16.74
2022-08-27T12:44:07.122Z,16.79
2022-08-27T12:49:36.089Z,17.36
2022-08-27T12:54:44.801Z,16.96
2022-08-27T13:00:04.772Z,17.07
2022-08-27T13:05:10.918Z,17.81
2022-08-27T13:10:17.155Z,17.87
2022-08-27T13:15:22.439Z,17.87
2022-08-27T13:20:27.873Z,18.09
2022-08-27T13:25:33.418Z,18.52
2022-08-27T13:30:42.185Z,18.24
2022-08-27T13:35:47.560Z,18.23
2022-08-27T13:40:57.589Z,18.81
2022-08-27T13:46:06.586Z,19.16
2022-08-27T13:51:11.107Z,19.50
2022-08-27T13:56:26.162Z,19.59
2022-08-27T14:01:32.962Z,20.01
2022-08-27T14:06:42.506Z,19.55
2022-08-27T14:11:47.334Z,19.51
2022-08-27T14:17:00.624Z,19.98
2022-08-27T14:22:04.485Z,20.78
2022-08-27T14:27:12.131Z,20.68
2022-08-27T14:32:19.224Z,21.42
2022-08-27T14:37:22.986Z,21.16
2022-08-27T14:47:26.734Z,22.08
2022-08-27T14:47:52.563Z,22.22
2022-08-27T14:52:56.012Z,22.69
2022-08-27T14:57:59.899Z,22.93
2022-08-27T15:03:05.036Z,23.24
2022-08-27T15:08:13.137Z,23.42
2022-08-27T15:13:17.790Z,23.94
2022-08-27T15:18:23.313Z,24.24
2022-08-27T15:23:27.168Z,24.76
2022-08-27T15:28:30.905Z,24.48
2022-08-27T15:33:35.783Z,25.25
2022-08-27T15:38:39.238Z,25.24
2022-08-27T15:43:42.741Z,25.66
2022-08-27T15:48:47.621Z,26.21
2022-08-27T15:53:51.163Z,26.20
2022-08-27T15:58:55.307Z,26.87
2022-08-27T16:04:01.326Z,27.36
2022-08-27T16:09:06.485Z,27.33
2022-08-27T16:14:10.761Z,27.54
2022-08-27T16:19:16.829Z,28.24
2022-08-27T16:24:21.597Z,28.96
2022-08-27T16:29:25.390Z,29.11
2022-08-27T16:34:30.972Z,29.13
2022-08-27T16:39:40.031Z,29.85
2022-08-27T16:44:44.145Z,30.41
2022-08-27T16:50:06.505Z,31.67
2022-08-27T16:55:11.943Z,33.52
2022-08-27T17:00:15.696Z,35.76
2022-08-27T17:05:34.434Z,36.36
2022-08-27T17:10:43.485Z,36.89
2022-08-27T17:15:52.640Z,37.81
2022-08-27T17:21:00.633Z,38.36
2022-08-27T17:26:06.386Z,37.76
2022-08-27T17:31:11.478Z,37.87
2022-08-27T17:36:16.661Z,38.70
2022-08-27T17:41:28.644Z,38.89
2022-08-27T17:46:34.625Z,39.50
2022-08-27T17:51:39.237Z,37.50
2022-08-27T17:56:44.090Z,41.06
2022-08-27T18:01:48.307Z,42.18
2022-08-27T18:06:53.490Z,42.06
2022-08-27T18:11:57.386Z,42.14
2022-08-27T18:17:00.927Z,41.56
2022-08-27T18:22:06.847Z,42.31
2022-08-27T18:27:10.556Z,42.36
2022-08-27T18:32:14.091Z,42.66
2022-08-27T18:37:19.644Z,42.95
2022-08-27T18:42:23.798Z,44.04
2022-08-27T18:47:27.426Z,43.78
2022-08-27T18:52:32.585Z,43.82
2022-08-27T18:57:36.211Z,43.49
2022-08-27T19:02:42.193Z,42.90
2022-08-27T19:07:47.197Z,43.18
2022-08-27T19:12:51.892Z,44.11
2022-08-27T19:17:58.941Z,44.66
2022-08-27T19:23:04.377Z,45.23
2022-08-27T19:28:08.739Z,46.36
2022-08-27T19:33:12.962Z,46.04
2022-08-27T19:38:18.759Z,46.96
2022-08-27T19:43:22.310Z,47.44
2022-08-27T19:48:26.232Z,47.80
2022-08-27T19:53:31.520Z,47.95
2022-08-27T19:58:34.953Z,48.02
2022-08-27T20:03:39.172Z,48.17
2022-08-27T20:08:45.069Z,48.80
2022-08-27T20:13:51.250Z,48.27
2022-08-27T20:18:58.402Z,49.15
2022-08-27T20:24:06.018Z,49.00
2022-08-27T20:29:12.106Z,49.57
2022-08-27T20:34:18.878Z,50.11
2022-08-27T20:39:25.510Z,50.41
2022-08-27T20:44:29.338Z,50.18
2022-08-27T20:49:35.296Z,50.60
2022-08-27T20:54:40.317Z,50.60
2022-08-27T21:00:01.437Z,50.71
2022-08-27T21:05:10.872Z,50.81
2022-08-27T21:10:17.323Z,50.60
2022-08-27T21:15:20.952Z,50.64
2022-08-27T21:20:24.482Z,50.52
2022-08-27T21:25:29.790Z,50.74
2022-08-27T21:30:33.455Z,50.47
2022-08-27T21:35:36.922Z,50.46
2022-08-27T21:40:42.016Z,50.78
2022-08-27T21:45:45.721Z,50.66
2022-08-27T21:50:53.354Z,50.75
2022-08-27T21:55:58.766Z,49.89
2022-08-27T22:01:04.269Z,50.87
2022-08-27T22:06:09.816Z,51.24
2022-08-27T22:11:19.547Z,51.22
2022-08-27T22:16:25.391Z,51.40
2022-08-27T22:21:28.868Z,51.60
2022-08-27T22:26:33.841Z,51.74
2022-08-27T22:31:37.543Z,51.50
2022-08-27T22:36:41.136Z,51.55
2022-08-27T22:41:48.778Z,51.51
2022-08-27T22:46:53.331Z,52.06
2022-08-27T22:51:56.860Z,52.12
2022-08-27T22:57:01.820Z,51.59
2022-08-27T23:02:07.087Z,51.95
2022-08-27T23:07:10.695Z,51.68
2022-08-27T23:12:15.755Z,51.52
2022-08-27T23:17:19.273Z,51.88
2022-08-27T23:22:23.230Z,51.97
2022-08-27T23:27:30.806Z,52.39
2022-08-27T23:32:34.273Z,52.15
2022-08-27T23:37:37.898Z,51.92
2022-08-27T23:42:44.463Z,51.68
2022-08-27T23:47:48.070Z,51.93
2022-08-27T23:52:51.862Z,51.59
2022-08-27T23:57:58.799Z,51.81
